Time;durP1;ratioP1;P1;durP2;ratioP2;P2;SDS_P1;SDS_P2;PMS_P1;PMS_P2;Temp;Humidity;BMP_temperature;BMP_pressure;BME280_temperature;BME280_humidity;BME280_pressure;Samples;Min_cycle;Max_cycle;Signal;HPM_P1;HPM_P2
2023/01/23 00:02:20;;;;;;;29.05;14.50;;;;;;;9.05;100.00;100862.66;5088987;28;20020;-29
2023/01/23 00:04:45;;;;;;;59.92;31.80;;;;;;;8.91;100.00;100870.69;5089263;28;20545;-30
2023/01/23 00:07:11;;;;;;;45.38;30.58;;;;;;;8.91;100.00;100870.69;5088692;28;20023;-29
2023/01/23 00:09:36;;;;;;;39.58;25.95;;;;;;;8.90;100.00;100866.38;5088497;28;20035;-32
2023/01/23 00:12:02;;;;;;;21.75;14.85;;;;;;;8.74;100.00;100843.50;5062061;28;20024;-29
2023/01/23 00:14:28;;;;;;;29.08;15.98;;;;;;;8.88;100.00;100863.09;5070300;28;20512;-34
2023/01/23 00:16:53;;;;;;;24.17;12.85;;;;;;;8.72;100.00;100872.09;5088780;28;20027;-29
2023/01/23 00:19:19;;;;;;;32.55;17.27;;;;;;;8.92;100.00;100882.97;5088520;28;20066;-29
2023/01/23 00:21:44;;;;;;;30.17;15.05;;;;;;;8.95;100.00;100862.16;5088526;28;20054;-29
2023/01/23 00:24:11;;;;;;;28.00;14.57;;;;;;;8.77;100.00;100857.25;5088509;28;20027;-28
2023/01/23 00:26:36;;;;;;;27.95;15.10;;;;;;;8.69;100.00;100875.97;5088626;28;20032;-29
2023/01/23 00:29:03;;;;;;;26.90;13.50;;;;;;;8.62;100.00;100856.44;5070076;28;20031;-28
2023/01/23 00:31:32;;;;;;;28.90;14.20;;;;;;;8.81;100.00;100871.81;5088513;28;20040;-29
2023/01/23 00:34:01;;;;;;;28.35;13.80;;;;;;;9.05;100.00;100880.44;5087413;28;20036;-31
2023/01/23 00:36:29;;;;;;;25.77;14.50;;;;;;;9.10;100.00;100879.91;5061161;28;20058;-29
2023/01/23 00:38:56;;;;;;;33.17;15.63;;;;;;;8.95;100.00;100861.31;5061446;28;20030;-29
2023/01/23 00:41:21;;;;;;;31.05;13.55;;;;;;;8.93;100.00;100868.66;5069075;28;20495;-29
2023/01/23 00:43:47;;;;;;;27.08;13.18;;;;;;;8.77;100.00;100867.88;5087640;28;20032;-28
2023/01/23 00:46:13;;;;;;;29.50;16.27;;;;;;;8.74;100.00;100857.59;5087615;28;20114;-29
2023/01/23 00:48:38;;;;;;;30.52;13.90;;;;;;;8.61;100.00;100838.84;5087552;28;20028;-28
2023/01/23 00:51:04;;;;;;;26.38;12.88;;;;;;;8.77;100.00;100870.53;5087636;28;20073;-30
2023/01/23 00:53:29;;;;;;;28.48;13.98;;;;;;;8.56;100.00;100850.06;5060744;28;20028;-32
2023/01/23 00:55:55;;;;;;;28.58;15.23;;;;;;;8.57;100.00;100864.16;5087146;28;20146;-31
2023/01/23 00:58:20;;;;;;;29.50;14.35;;;;;;;8.47;100.00;100821.91;5087626;28;20035;-30
2023/01/23 01:00:46;;;;;;;27.40;15.18;;;;;;;8.61;100.00;100849.50;5086995;28;20028;-29
2023/01/23 01:03:12;;;;;;;27.42;13.48;;;;;;;8.71;100.00;100860.66;5087107;28;20032;-30
2023/01/23 01:05:37;;;;;;;29.95;16.08;;;;;;;8.73;100.00;100863.13;5087506;28;20032;-31
2023/01/23 01:08:04;;;;;;;28.25;14.55;;;;;;;8.63;100.00;100853.59;5089057;28;20036;-30
2023/01/23 01:10:31;;;;;;;23.20;12.73;;;;;;;8.73;100.00;100869.28;5072784;28;20184;-30
2023/01/23 01:12:58;;;;;;;31.60;13.15;;;;;;;8.51;100.00;100838.31;5091591;28;20031;-33
2023/01/23 01:15:24;;;;;;;28.30;13.98;;;;;;;8.89;100.00;100873.53;5091373;28;20028;-29
2023/01/23 01:17:52;;;;;;;19.38;10.15;;;;;;;8.64;100.00;100870.38;5091188;28;20549;-30
2023/01/23 01:20:18;;;;;;;26.80;12.38;;;;;;;8.71;100.00;100868.63;5091243;28;20035;-33
2023/01/23 01:22:44;;;;;;;25.63;12.88;;;;;;;8.72;100.00;100877.44;5091041;28;20119;-29
2023/01/23 01:25:09;;;;;;;24.25;12.23;;;;;;;8.69;100.00;100875.97;5091153;28;20039;-32
2023/01/23 01:27:35;;;;;;;31.02;13.60;;;;;;;8.76;100.00;100874.19;5091425;28;20070;-28
2023/01/23 01:30:00;;;;;;;26.77;12.27;;;;;;;8.69;100.00;100867.19;5091674;28;20020;-29
2023/01/23 01:32:26;;;;;;;27.33;12.77;;;;;;;8.85;100.00;100883.72;5073261;28;20031;-28
2023/01/23 01:34:51;;;;;;;25.02;10.80;;;;;;;8.85;100.00;100886.38;5091659;28;20028;-29
2023/01/23 01:37:17;;;;;;;28.27;12.65;;;;;;;8.68;100.00;100884.94;5072832;28;20048;-29
2023/01/23 01:39:42;;;;;;;23.83;11.80;;;;;;;8.58;100.00;100871.13;5091057;28;20494;-33
2023/01/23 01:42:08;;;;;;;28.85;13.65;;;;;;;8.78;100.00;100882.81;5091399;28;20395;-29
2023/01/23 01:45:27;;;;;;;28.63;13.25;;;;;;;8.62;100.00;100893.66;5091182;28;20438;-31
2023/01/23 01:47:53;;;;;;;26.55;13.18;;;;;;;8.68;100.00;100892.91;5048315;28;20588;-27
2023/01/23 01:50:19;;;;;;;30.80;14.50;;;;;;;8.72;100.00;100891.53;5087671;28;20131;-28
2023/01/23 01:52:44;;;;;;;30.75;13.65;;;;;;;8.75;100.00;100882.38;5091214;28;20029;-28
2023/01/23 01:55:10;;;;;;;25.77;12.93;;;;;;;8.62;100.00;100877.72;5091178;28;20020;-28
2023/01/23 01:57:40;;;;;;;21.83;11.70;;;;;;;8.78;100.00;100893.44;5090490;28;20044;-37
2023/01/23 02:00:17;;;;;;;24.02;13.52;;;;;;;8.58;100.00;100893.22;5063811;28;20028;-29
2023/01/23 02:02:48;;;;;;;30.33;12.98;;;;;;;8.70;100.00;100895.41;5090718;28;20028;-28
2023/01/23 02:05:23;;;;;;;35.42;13.10;;;;;;;8.54;100.00;100880.47;5090470;28;20052;-31
2023/01/23 02:08:13;;;;;;;31.35;13.35;;;;;;;8.67;100.00;100906.44;5090258;28;20380;-30
2023/01/23 02:10:39;;;;;;;30.60;14.95;;;;;;;8.70;100.00;100906.84;5072056;28;20211;-29
2023/01/23 02:13:22;;;;;;;25.65;11.35;;;;;;;8.53;100.00;100916.06;5089924;28;20040;-29
2023/01/23 02:15:48;;;;;;;29.65;12.52;;;;;;;8.44;100.00;100891.41;5090418;28;20099;-29
2023/01/23 02:18:14;;;;;;;32.05;13.27;;;;;;;8.57;100.00;100899.53;5089798;28;20035;-29
2023/01/23 02:20:40;;;;;;;29.33;13.43;;;;;;;8.67;100.00;100915.22;5090222;28;20024;-29
2023/01/23 02:23:09;;;;;;;33.33;13.63;;;;;;;8.68;100.00;100913.38;5089915;28;20031;-29
2023/01/23 02:25:43;;;;;;;27.90;12.23;;;;;;;8.75;100.00;100920.44;5089834;28;20031;-30
2023/01/23 02:28:11;;;;;;;29.35;12.90;;;;;;;8.97;100.00;100917.81;5090375;28;20520;-30
2023/01/23 02:30:39;;;;;;;29.27;13.40;;;;;;;8.82;100.00;100913.34;5072315;28;20038;-30
2023/01/23 02:33:11;;;;;;;29.75;13.43;;;;;;;8.73;100.00;100911.81;5090440;28;20035;-32
2023/01/23 02:35:38;;;;;;;25.50;13.23;;;;;;;8.77;100.00;100918.41;5090172;28;20047;-34
2023/01/23 02:38:04;;;;;;;30.75;13.13;;;;;;;8.56;100.00;100921.84;5089988;28;20036;-28
2023/01/23 02:40:37;;;;;;;25.60;12.07;;;;;;;8.56;100.00;100902.38;5090408;28;20034;-30
2023/01/23 02:43:05;;;;;;;27.70;12.20;;;;;;;8.54;100.00;100915.03;5090148;28;20035;-35
2023/01/23 02:45:31;;;;;;;27.73;13.43;;;;;;;8.53;100.00;100902.75;5071735;28;20036;-28
2023/01/23 02:47:56;;;;;;;28.90;13.05;;;;;;;8.70;100.00;100906.84;5090599;28;20036;-30
2023/01/23 02:50:22;;;;;;;36.60;14.48;;;;;;;8.62;100.00;100914.94;5089936;28;20039;-31
2023/01/23 02:52:49;;;;;;;28.85;12.63;;;;;;;8.35;100.00;100898.59;5090009;28;20055;-29
2023/01/23 02:55:16;;;;;;;32.00;13.80;;;;;;;8.34;100.00;100902.28;5090122;28;20111;-28
2023/01/23 02:57:44;;;;;;;32.17;15.32;;;;;;;8.41;100.00;100897.91;5071802;28;20081;-31
2023/01/23 03:00:19;;;;;;;50.85;22.15;;;;;;;8.65;100.00;100914.59;5071725;28;20123;-28
2023/01/23 03:02:49;;;;;;;31.17;14.65;;;;;;;8.33;100.00;100895.31;5089937;28;20023;-27
2023/01/23 03:05:16;;;;;;;40.53;17.92;;;;;;;8.40;100.00;100898.06;5070573;28;20495;-31
2023/01/23 03:07:41;;;;;;;33.20;14.75;;;;;;;8.48;100.00;100910.44;5071582;28;20040;-29
2023/01/23 03:10:08;;;;;;;32.92;14.60;;;;;;;8.45;100.00;100914.31;5089169;28;20129;-30
2023/01/23 03:12:34;;;;;;;52.45;27.15;;;;;;;8.34;100.00;100912.09;5070824;28;20043;-33
2023/01/23 03:15:01;;;;;;;24.73;11.88;;;;;;;8.35;100.00;100924.38;5089209;28;20030;-31
2023/01/23 03:17:27;;;;;;;35.45;17.60;;;;;;;8.33;100.00;100929.84;5089040;28;20032;-29
2023/01/23 03:19:54;;;;;;;51.85;30.13;;;;;;;8.37;100.00;100917.84;5070718;28;20134;-31
2023/01/23 03:22:20;;;;;;;32.25;15.55;;;;;;;8.36;100.00;100920.72;5089690;28;20028;-28
2023/01/23 03:24:45;;;;;;;34.47;18.15;;;;;;;8.24;100.00;100917.69;5089770;28;20031;-29
2023/01/23 03:27:11;;;;;;;51.80;29.30;;;;;;;8.15;100.00;100918.75;5089128;28;20044;-29
2023/01/23 03:32:21;;;;;;;40.05;20.05;;;;;;;8.10;100.00;100916.66;5088442;28;20526;-30
2023/01/23 03:34:47;;;;;;;42.05;24.13;;;;;;;8.20;100.00;100921.72;5070962;28;20028;-29
2023/01/23 03:37:14;;;;;;;54.70;24.20;;;;;;;8.02;100.00;100914.91;5088539;28;20052;-30
2023/01/23 03:42:23;;;;;;;85.30;40.40;;;;;;;8.08;100.00;100939.91;5089303;28;20031;-28
2023/01/23 03:44:51;;;;;;;37.58;17.98;;;;;;;8.08;100.00;100929.28;5070930;28;20024;-30
2023/01/23 03:47:16;;;;;;;32.95;14.07;;;;;;;8.02;100.00;100912.25;5089108;28;20032;-29
2023/01/23 03:49:41;;;;;;;26.75;11.18;;;;;;;8.02;100.00;100920.22;5071228;28;20032;-28
2023/01/23 03:52:07;;;;;;;31.83;17.65;;;;;;;7.91;100.00;100930.47;5089540;28;20028;-28
2023/01/23 03:54:32;;;;;;;25.50;12.25;;;;;;;8.03;100.00;100940.47;5089244;28;20024;-29
2023/01/23 03:56:58;;;;;;;28.50;12.40;;;;;;;8.13;100.00;100942.03;5089014;28;20054;-27
2023/01/23 03:59:23;;;;;;;23.80;10.63;;;;;;;7.96;100.00;100950.16;5088554;28;20023;-28
2023/01/23 04:01:49;;;;;;;24.92;11.15;;;;;;;8.12;100.00;100948.38;5089568;28;20066;-32
2023/01/23 04:04:15;;;;;;;27.00;12.77;;;;;;;7.97;100.00;100946.50;5088688;28;20494;-29
2023/01/23 04:06:40;;;;;;;27.30;11.85;;;;;;;8.10;100.00;100939.75;5088559;28;20438;-31
2023/01/23 04:09:05;;;;;;;27.42;12.15;;;;;;;7.87;100.00;100922.03;5088182;28;20043;-29
2023/01/23 04:11:31;;;;;;;25.27;11.63;;;;;;;8.05;100.00;100953.56;5088472;28;20028;-33
2023/01/23 04:13:56;;;;;;;28.63;12.38;;;;;;;8.04;100.00;100944.75;5088423;28;20028;-34
2023/01/23 04:16:22;;;;;;;27.17;11.15;;;;;;;7.93;100.00;100953.19;5088906;28;20427;-30
2023/01/23 04:18:49;;;;;;;23.80;10.93;;;;;;;7.87;100.00;100937.13;5088512;28;20099;-34
2023/01/23 04:21:14;;;;;;;30.38;12.65;;;;;;;8.03;100.00;100956.41;5087995;28;20028;-30
2023/01/23 04:23:40;;;;;;;34.00;18.10;;;;;;;7.90;100.00;100960.69;5088158;28;20412;-30
2023/01/23 04:26:05;;;;;;;27.50;13.40;;;;;;;7.92;100.00;100966.63;5087981;28;20138;-29
2023/01/23 04:28:31;;;;;;;23.48;11.43;;;;;;;7.92;100.00;100972.75;5088035;28;20028;-29
2023/01/23 04:30:56;;;;;;;28.63;13.43;;;;;;;8.01;100.00;100977.00;5088297;28;20053;-28
2023/01/23 04:33:22;;;;;;;25.55;12.00;;;;;;;7.93;100.00;100976.28;5088807;28;20028;-30
2023/01/23 04:35:53;;;;;;;25.80;12.13;;;;;;;8.06;100.00;100989.75;5066879;28;20048;-28
2023/01/23 04:38:19;;;;;;;20.80;9.07;;;;;;;7.91;100.00;100991.56;5067301;28;20029;-31
2023/01/23 04:40:46;;;;;;;23.10;11.52;;;;;;;7.91;100.00;100986.25;5068559;28;20032;-28
2023/01/23 04:43:12;;;;;;;24.77;11.48;;;;;;;7.81;100.00;100976.69;5071381;28;20028;-31
2023/01/23 04:45:37;;;;;;;33.70;12.57;;;;;;;7.87;100.00;100984.91;5072487;28;20397;-29
2023/01/23 04:48:03;;;;;;;26.08;11.90;;;;;;;7.95;100.00;100985.69;5072202;28;20124;-29
2023/01/23 04:50:28;;;;;;;27.60;11.38;;;;;;;7.91;100.00;100995.03;5072140;28;20055;-29
2023/01/23 04:52:54;;;;;;;26.95;10.48;;;;;;;7.68;100.00;100978.28;5070815;28;20028;-30
2023/01/23 04:55:19;;;;;;;25.08;10.68;;;;;;;7.57;100.00;100948.47;5071912;28;20039;-29
2023/01/23 04:57:45;;;;;;;23.42;11.13;;;;;;;7.67;100.00;100985.41;5071936;28;20480;-29
2023/01/23 05:00:12;;;;;;;24.58;12.52;;;;;;;7.86;100.00;100989.41;5072154;28;20031;-28
2023/01/23 05:02:37;;;;;;;20.52;10.25;;;;;;;7.70;100.00;100973.59;5072146;28;20017;-28
2023/01/23 05:05:03;;;;;;;23.38;10.55;;;;;;;7.78;100.00;100992.94;5071667;28;20054;-30
2023/01/23 05:07:29;;;;;;;26.20;11.57;;;;;;;7.78;100.00;100992.94;5069969;28;20119;-30
2023/01/23 05:09:54;;;;;;;21.58;9.63;;;;;;;7.71;100.00;100970.78;5071589;28;20507;-30
2023/01/23 05:12:19;;;;;;;27.80;11.82;;;;;;;7.71;100.00;100997.34;5069737;28;20035;-29
2023/01/23 05:14:45;;;;;;;41.75;18.75;;;;;;;7.83;100.00;100989.78;5071253;28;20044;-30
2023/01/23 05:17:10;;;;;;;25.45;12.90;;;;;;;7.57;100.00;100959.09;5070312;28;20093;-28
2023/01/23 05:19:36;;;;;;;43.88;19.48;;;;;;;7.81;100.00;101008.53;5070997;28;20393;-35
2023/01/23 05:22:01;;;;;;;76.53;29.52;;;;;;;7.83;100.00;101017.16;5071357;28;20028;-33
2023/01/23 05:24:26;;;;;;;28.58;10.88;;;;;;;7.60;100.00;101000.38;5071397;28;20032;-30
2023/01/23 05:26:52;;;;;;;24.50;12.25;;;;;;;7.78;100.00;101018.69;5071133;28;20067;-29
2023/01/23 05:29:17;;;;;;;29.30;14.23;;;;;;;7.74;100.00;101018.19;5072006;28;20395;-29
2023/01/23 05:31:43;;;;;;;28.27;15.13;;;;;;;7.70;100.00;101032.00;5071595;28;20828;-31
2023/01/23 05:34:08;;;;;;;30.75;13.30;;;;;;;7.63;100.00;101022.09;5069644;28;20029;-29
2023/01/23 05:36:34;;;;;;;26.30;11.55;;;;;;;7.78;100.00;101024.00;5083441;28;20047;-30
2023/01/23 05:38:59;;;;;;;21.80;11.65;;;;;;;7.80;100.00;101024.66;5091297;28;20080;-29
2023/01/23 05:41:24;;;;;;;29.35;16.02;;;;;;;7.61;100.00;101024.09;5091197;28;20085;-32
2023/01/23 05:43:50;;;;;;;23.52;13.35;;;;;;;7.61;100.00;101034.72;5091132;28;20024;-29
2023/01/23 05:46:16;;;;;;;29.00;16.17;;;;;;;7.55;100.00;101022.16;5091846;28;20032;-29
2023/01/23 05:48:41;;;;;;;23.58;12.82;;;;;;;7.82;100.00;101051.84;5073081;28;20036;-30
2023/01/23 05:51:07;;;;;;;22.60;9.55;;;;;;;7.70;100.00;101048.75;5091304;28;20060;-30
2023/01/23 05:53:32;;;;;;;20.25;9.43;;;;;;;7.49;100.00;101036.13;5090174;28;20059;-29
2023/01/23 05:55:58;;;;;;;25.63;12.15;;;;;;;7.64;100.00;101045.00;5091116;28;20056;-28
2023/01/23 05:58:23;;;;;;;19.35;10.23;;;;;;;7.72;100.00;101057.38;5091220;28;20438;-31
2023/01/23 06:00:48;;;;;;;24.00;10.23;;;;;;;7.70;100.00;101054.06;5090990;28;20081;-29
2023/01/23 06:03:14;;;;;;;25.13;13.27;;;;;;;7.91;100.00;101061.44;5090769;28;20109;-30
2023/01/23 06:05:40;;;;;;;27.85;14.50;;;;;;;7.66;100.00;101042.16;5090889;28;20028;-29
2023/01/23 06:08:06;;;;;;;23.30;11.70;;;;;;;7.65;100.00;101053.78;5090314;28;20038;-31
2023/01/23 06:10:31;;;;;;;17.60;9.43;;;;;;;7.54;100.00;101064.78;5071884;28;20521;-31
2023/01/23 06:12:57;;;;;;;23.52;11.55;;;;;;;7.70;100.00;101079.81;5090157;28;20063;-31
2023/01/23 06:15:22;;;;;;;29.35;13.38;;;;;;;7.64;100.00;101070.72;5090177;28;20043;-33
2023/01/23 06:17:47;;;;;;;19.13;9.73;;;;;;;7.79;100.00;101095.53;5090060;28;20024;-34
2023/01/23 06:20:13;;;;;;;27.00;12.50;;;;;;;7.84;100.00;101093.16;5071968;28;20038;-28
2023/01/23 06:22:39;;;;;;;25.58;12.23;;;;;;;7.94;100.00;101092.94;5090117;28;20027;-29
2023/01/23 06:25:05;;;;;;;25.67;13.32;;;;;;;8.04;100.00;101100.69;5089834;28;20032;-32
2023/01/23 06:27:30;;;;;;;29.77;12.40;;;;;;;7.82;100.00;101091.69;5090289;28;20024;-29
2023/01/23 06:29:56;;;;;;;17.02;9.05;;;;;;;7.81;100.00;101104.16;5090146;28;20101;-29
2023/01/23 06:32:22;;;;;;;26.05;12.13;;;;;;;7.92;100.00;101110.88;5071729;28;20028;-29
2023/01/23 06:34:48;;;;;;;30.63;15.90;;;;;;;8.04;100.00;101106.81;5090417;28;20573;-35
2023/01/23 06:37:13;;;;;;;25.95;12.57;;;;;;;7.94;100.00;101113.38;5090216;28;20048;-30
2023/01/23 06:39:39;;;;;;;35.30;17.30;;;;;;;7.98;100.00;101120.78;5072159;28;20047;-28
2023/01/23 06:42:08;;;;;;;29.48;16.38;;;;;;;7.96;100.00;101117.50;5090155;28;20028;-31
2023/01/23 06:44:34;;;;;;;20.55;9.60;;;;;;;7.93;100.00;101123.16;5090658;28;20054;-31
2023/01/23 06:46:59;;;;;;;23.55;11.30;;;;;;;7.88;100.00;101119.38;5089716;28;20038;-29
2023/01/23 06:49:25;;;;;;;23.52;12.65;;;;;;;7.94;100.00;101130.13;5089825;28;20044;-29
2023/01/23 06:51:50;;;;;;;21.02;8.85;;;;;;;7.91;100.00;101117.22;5090663;28;20077;-29
2023/01/23 06:54:16;;;;;;;21.90;10.23;;;;;;;7.91;100.00;101114.56;5089855;28;20089;-29
2023/01/23 06:56:41;;;;;;;20.95;10.43;;;;;;;8.06;100.00;101141.19;5090035;28;20024;-28
2023/01/23 06:59:06;;;;;;;25.15;13.43;;;;;;;8.27;100.00;101140.53;5089912;28;20403;-29
2023/01/23 07:01:32;;;;;;;25.02;12.95;;;;;;;8.15;100.00;101147.25;5089981;28;20401;-29
2023/01/23 07:03:57;;;;;;;29.63;13.18;;;;;;;8.10;100.00;101149.63;5089935;28;20028;-32
2023/01/23 07:06:23;;;;;;;21.90;11.40;;;;;;;7.96;100.00;101160.00;5070895;28;20502;-28
2023/01/23 07:08:49;;;;;;;21.13;12.25;;;;;;;8.06;100.00;101165.09;5089272;28;20530;-30
2023/01/23 07:11:14;;;;;;;29.80;13.43;;;;;;;7.92;100.00;101126.00;5088762;28;20032;-29
2023/01/23 07:13:40;;;;;;;20.77;9.85;;;;;;;8.09;100.00;101174.53;5071184;28;20044;-31
2023/01/23 07:16:06;;;;;;;24.17;10.93;;;;;;;7.91;100.00;101162.34;5070885;28;20449;-34
2023/01/23 07:18:32;;;;;;;21.48;10.25;;;;;;;8.04;100.00;101175.88;5089330;28;20023;-30
2023/01/23 07:20:57;;;;;;;20.38;10.23;;;;;;;8.05;100.00;101164.25;5070787;28;20150;-29
2023/01/23 07:23:23;;;;;;;25.73;11.73;;;;;;;8.10;100.00;101162.91;5088728;28;20104;-30
2023/01/23 07:25:48;;;;;;;28.23;12.82;;;;;;;8.04;100.00;101162.59;5089076;28;20130;-29
2023/01/23 07:28:14;;;;;;;27.80;15.13;;;;;;;8.05;100.00;101153.66;5088895;28;20028;-31
2023/01/23 07:30:40;;;;;;;29.10;16.25;;;;;;;8.03;100.00;101176.91;5089173;28;20024;-29
2023/01/23 07:33:05;;;;;;;31.02;16.98;;;;;;;7.97;100.00;101172.28;5071136;28;20032;-29
2023/01/23 07:35:31;;;;;;;32.95;16.58;;;;;;;7.91;100.00;101157.03;5071272;28;20489;-28
2023/01/23 07:37:57;;;;;;;28.15;13.45;;;;;;;7.78;100.00;101151.47;5067423;28;20044;-29
2023/01/23 07:40:22;;;;;;;29.58;14.02;;;;;;;8.03;100.00;101176.91;5068031;28;20119;-31
2023/01/23 07:42:48;;;;;;;29.58;15.82;;;;;;;7.98;100.00;101150.00;5069015;28;20108;-30
2023/01/23 07:45:14;;;;;;;32.38;17.05;;;;;;;8.10;100.00;101160.25;5067300;28;20412;-31
2023/01/23 07:47:39;;;;;;;46.90;27.13;;;;;;;8.16;100.00;101186.13;5069070;28;20042;-28
2023/01/23 07:50:11;;;;;;;33.53;19.00;;;;;;;7.84;100.00;101172.00;5067409;28;20368;-30
2023/01/23 07:52:37;;;;;;;74.95;54.67;;;;;;;8.14;100.00;101178.31;5068936;28;20040;-29
2023/01/23 07:55:03;;;;;;;29.73;17.45;;;;;;;7.83;100.00;101146.47;5069050;28;20115;-29
2023/01/23 07:57:29;;;;;;;24.40;12.15;;;;;;;7.93;100.00;101168.31;5068825;28;20103;-28
2023/01/23 07:59:55;;;;;;;25.33;15.10;;;;;;;8.12;100.00;101182.16;5068964;28;20056;-28
2023/01/23 08:02:20;;;;;;;26.88;13.50;;;;;;;7.90;100.00;101175.81;5067513;28;20040;-29
2023/01/23 08:04:45;;;;;;;31.73;15.95;;;;;;;8.18;100.00;101192.09;5066571;28;20024;-28
2023/01/23 08:07:11;;;;;;;28.50;13.32;;;;;;;8.08;100.00;101162.25;5067703;28;20025;-33
2023/01/23 08:09:37;;;;;;;33.75;16.50;;;;;;;8.23;100.00;101187.06;5067837;28;20021;-33
2023/01/23 08:12:03;;;;;;;49.05;19.70;;;;;;;8.12;100.00;101171.53;5066980;28;20523;-30
2023/01/23 08:14:28;;;;;;;28.55;14.80;;;;;;;8.00;100.00;101160.47;5067014;28;20147;-29
2023/01/23 08:16:54;;;;;;;19.55;8.82;;;;;;;7.99;100.00;101186.22;5069177;28;20400;-31
2023/01/23 08:19:19;;;;;;;33.10;15.88;;;;;;;8.08;100.00;101175.53;5072116;28;20538;-30
2023/01/23 08:21:46;;;;;;;28.70;14.65;;;;;;;8.10;100.00;101186.81;5069917;28;21365;-33
2023/01/23 08:24:11;;;;;;;23.17;13.00;;;;;;;8.02;100.00;101159.28;5069334;28;20024;-30
2023/01/23 08:26:38;;;;;;;22.65;10.85;;;;;;;8.03;100.00;101176.91;5071662;28;20028;-32
2023/01/23 08:29:04;;;;;;;37.78;19.42;;;;;;;8.27;100.00;101182.22;5071595;28;20393;-29
2023/01/23 08:31:29;;;;;;;28.27;13.93;;;;;;;8.15;100.00;101184.47;5071276;28;20032;-35
2023/01/23 08:33:55;;;;;;;52.08;25.38;;;;;;;8.19;100.00;101181.28;5071634;28;20028;-28
2023/01/23 08:36:20;;;;;;;34.30;15.30;;;;;;;8.22;100.00;101180.09;5078149;28;20051;-29
2023/01/23 08:38:46;;;;;;;25.70;13.15;;;;;;;8.32;100.00;101182.53;5091604;28;20040;-31
2023/01/23 08:41:11;;;;;;;31.65;14.70;;;;;;;8.14;100.00;101188.13;5091853;28;20030;-30
2023/01/23 08:43:37;;;;;;;25.05;11.77;;;;;;;8.20;100.00;101187.44;5091044;28;20139;-30
2023/01/23 08:46:03;;;;;;;48.67;19.13;;;;;;;8.12;100.00;101190.13;5074412;28;20038;-28
2023/01/23 08:48:28;;;;;;;27.65;14.13;;;;;;;8.09;100.00;101201.09;5074180;28;20070;-28
2023/01/23 08:51:00;;;;;;;20.63;11.00;;;;;;;8.14;100.00;101204.88;5092373;28;20031;-33
2023/01/23 08:53:26;;;;;;;31.23;17.80;;;;;;;8.34;100.00;101192.00;5073992;28;20119;-28
2023/01/23 08:55:52;;;;;;;24.55;11.55;;;;;;;8.28;100.00;101189.22;5092393;28;20547;-29
2023/01/23 08:58:19;;;;;;;32.28;19.30;;;;;;;8.40;100.00;101196.59;5074276;28;20407;-35
2023/01/23 09:00:47;;;;;;;21.60;11.82;;;;;;;8.38;100.00;101195.94;5091137;28;20115;-28
2023/01/23 09:03:12;;;;;;;25.20;11.77;;;;;;;8.30;100.00;101196.00;5091165;28;20479;-30
2023/01/23 09:05:38;;;;;;;23.98;13.05;;;;;;;8.27;100.00;101188.38;5064040;28;20071;-32
2023/01/23 09:08:03;;;;;;;23.92;13.68;;;;;;;8.34;100.00;101210.59;5091276;28;20032;-30
2023/01/23 09:10:29;;;;;;;29.80;17.15;;;;;;;8.39;100.00;101200.25;5091082;28;20400;-30
2023/01/23 09:12:55;;;;;;;25.25;12.70;;;;;;;8.38;100.00;101206.56;5056240;28;20415;-30
2023/01/23 09:15:23;;;;;;;24.10;12.60;;;;;;;8.42;100.00;101191.97;5090689;28;20634;-29
2023/01/23 09:17:49;;;;;;;21.65;12.10;;;;;;;8.34;100.00;101180.53;5069994;28;20428;-33
2023/01/23 09:20:15;;;;;;;28.33;12.35;;;;;;;8.36;100.00;101187.31;5090723;28;20032;-29
2023/01/23 09:22:41;;;;;;;38.33;20.65;;;;;;;8.32;100.00;101195.84;5072626;28;20393;-30
2023/01/23 09:25:07;;;;;;;37.38;21.15;;;;;;;8.33;100.00;101166.41;5072663;28;20050;-29
2023/01/23 09:27:33;;;;;;;25.15;12.35;;;;;;;8.23;100.00;101179.09;5090493;28;20097;-29
2023/01/23 09:29:58;;;;;;;25.83;14.02;;;;;;;8.33;100.00;101173.56;5089913;28;20032;-30
2023/01/23 09:32:23;;;;;;;27.55;14.02;;;;;;;8.29;100.00;101177.56;5090794;28;20488;-29
2023/01/23 09:34:49;;;;;;;34.13;17.23;;;;;;;8.41;100.00;101195.59;5091013;28;20020;-29
2023/01/23 09:37:16;;;;;;;41.88;26.05;;;;;;;8.38;100.00;101195.94;5066338;28;20732;-29
2023/01/23 09:39:42;;;;;;;32.72;25.92;;;;;;;8.31;100.00;101202.97;5072401;28;20032;-29
2023/01/23 09:42:24;;;;;;;25.50;18.95;;;;;;;8.37;100.00;101209.41;5090549;28;20071;-29
2023/01/23 09:44:56;;;;;;;31.77;21.92;;;;;;;8.32;100.00;101186.03;5089485;28;20454;-30
2023/01/23 09:47:38;;;;;;;38.55;20.13;;;;;;;8.23;100.00;101189.72;5063552;28;20067;-28
2023/01/23 09:50:13;;;;;;;36.05;17.45;;;;;;;8.04;100.00;101191.00;5090356;28;20034;-31
2023/01/23 09:52:47;;;;;;;41.17;20.35;;;;;;;8.16;100.00;101202.88;5090307;28;20043;-27
2023/01/23 09:55:27;;;;;;;25.48;13.38;;;;;;;8.22;100.00;101199.53;5090198;28;20028;-28
2023/01/23 09:57:59;;;;;;;36.72;17.42;;;;;;;8.34;100.00;101188.50;5089097;28;20043;-29
2023/01/23 10:00:32;;;;;;;17.00;8.68;;;;;;;8.15;100.00;101200.41;5064459;28;20032;-29
2023/01/23 10:03:09;;;;;;;27.23;14.43;;;;;;;8.21;100.00;101189.91;5071772;28;20124;-28
2023/01/23 10:06:12;;;;;;;19.13;10.65;;;;;;;8.35;100.00;101190.97;5089731;28;20032;-29
2023/01/23 10:09:13;;;;;;;21.13;10.90;;;;;;;8.30;100.00;101164.09;5090197;28;20052;-29
2023/01/23 10:12:00;;;;;;;39.42;21.45;;;;;;;8.65;100.00;101177.84;5088103;28;20036;-31
2023/01/23 10:14:50;;;;;;;44.28;21.40;;;;;;;9.02;100.00;101189.47;5088292;28;20017;-28
2023/01/23 10:17:18;;;;;;;40.80;18.52;;;;;;;8.30;100.00;101189.88;5086929;28;20016;-31
2023/01/23 10:19:52;;;;;;;40.42;19.17;;;;;;;8.00;100.00;101163.94;5063068;28;20040;-29
2023/01/23 10:22:20;;;;;;;26.33;13.13;;;;;;;8.05;100.00;101185.53;5087241;28;20411;-29
2023/01/23 10:24:53;;;;;;;54.92;23.60;;;;;;;8.00;100.00;101182.53;5089565;28;20060;-31
2023/01/23 10:27:20;;;;;;;36.13;16.20;;;;;;;8.14;100.00;101190.78;5089191;28;20028;-33
2023/01/23 10:29:58;;;;;;;52.63;23.80;;;;;;;7.94;100.00;101180.59;5089475;28;20027;-29
2023/01/23 10:32:25;;;;;;;;;;;;;;;7.97;100.00;101174.94;5072292;28;20020;-31
2023/01/23 10:34:54;;;;;;;108.90;42.40;;;;;;;8.03;100.00;101182.22;5089818;28;19937;-28
2023/01/23 10:38:00;;;;;;;67.57;29.42;;;;;;;8.00;100.00;101184.38;5062009;28;20052;-29
2023/01/23 10:43:18;;;;;;;65.13;26.10;;;;;;;7.99;100.00;101177.44;5087861;28;20093;-29
2023/01/23 10:45:45;;;;;;;38.53;15.95;;;;;;;7.94;100.00;101179.75;5086785;28;20470;-29
2023/01/23 10:48:31;;;;;;;38.15;15.15;;;;;;;8.00;100.00;101179.06;5089168;28;20044;-31
2023/01/23 10:50:57;;;;;;;64.05;21.70;;;;;;;7.88;100.00;101152.06;5088505;28;20020;-28
2023/01/23 10:53:24;;;;;;;33.75;12.80;;;;;;;7.87;100.00;101165.50;5088745;28;20392;-29
2023/01/23 10:55:52;;;;;;;119.07;29.05;;;;;;;7.91;100.00;101172.97;5070701;28;20165;-29
2023/01/23 10:58:31;;;;;;;;;;;;;;;8.12;100.00;101168.88;5071327;28;20039;-31
2023/01/23 11:00:57;;;;;;;87.20;31.20;;;;;;;8.02;100.00;101164.59;5071871;28;19962;-29
2023/01/23 11:03:28;;;;;;;64.80;25.02;;;;;;;8.15;100.00;101179.13;5071231;28;20513;-31
2023/01/23 11:06:04;;;;;;;47.80;24.90;;;;;;;7.93;100.00;101152.38;5071722;28;20035;-31
2023/01/23 11:08:31;;;;;;;35.28;17.48;;;;;;;8.16;100.00;101176.31;5071570;28;20032;-29
2023/01/23 11:11:22;;;;;;;65.68;30.45;;;;;;;8.33;100.00;101163.75;5089952;28;20032;-31
2023/01/23 11:14:00;;;;;;;72.93;30.75;;;;;;;7.92;100.00;101152.56;5085562;28;20035;-29
2023/01/23 11:16:26;;;;;;;32.72;13.35;;;;;;;7.88;100.00;101173.31;5089805;28;20023;-31
2023/01/23 11:19:07;;;;;;;71.18;30.02;;;;;;;7.81;100.00;101167.06;5089487;28;20480;-29
2023/01/23 11:21:37;;;;;;;71.03;33.13;;;;;;;7.90;100.00;101165.19;5089887;28;20042;-28